sensor_id;sensor_type;location;lat;lon;timestamp;temperature;humidity
40085;DHT22;25786;51.504;7.344;2023-01-08T00:01:17;10.80;77.90
40085;DHT22;25786;51.504;7.344;2023-01-08T00:03:46;10.90;77.90
40085;DHT22;25786;51.504;7.344;2023-01-08T00:06:12;10.90;78.10
40085;DHT22;25786;51.504;7.344;2023-01-08T00:08:38;10.80;78.40
40085;DHT22;25786;51.504;7.344;2023-01-08T00:11:03;10.80;78.20
40085;DHT22;25786;51.504;7.344;2023-01-08T00:13:29;10.80;78.50
40085;DHT22;25786;51.504;7.344;2023-01-08T00:15:55;10.90;78.50
40085;DHT22;25786;51.504;7.344;2023-01-08T00:18:20;10.80;78.30
40085;DHT22;25786;51.504;7.344;2023-01-08T00:20:46;10.90;78.40
40085;DHT22;25786;51.504;7.344;2023-01-08T00:23:12;10.90;78.30
40085;DHT22;25786;51.504;7.344;2023-01-08T00:25:38;10.90;78.70
40085;DHT22;25786;51.504;7.344;2023-01-08T00:28:06;10.90;78.60
40085;DHT22;25786;51.504;7.344;2023-01-08T00:30:32;10.90;78.80
40085;DHT22;25786;51.504;7.344;2023-01-08T00:32:57;10.90;78.70
40085;DHT22;25786;51.504;7.344;2023-01-08T00:35:23;10.90;79.00
40085;DHT22;25786;51.504;7.344;2023-01-08T00:37:48;10.90;79.10
40085;DHT22;25786;51.504;7.344;2023-01-08T00:40:14;11.00;78.80
40085;DHT22;25786;51.504;7.344;2023-01-08T00:42:39;10.90;79.00
40085;DHT22;25786;51.504;7.344;2023-01-08T00:45:05;10.80;79.40
40085;DHT22;25786;51.504;7.344;2023-01-08T00:47:31;10.80;79.40
40085;DHT22;25786;51.504;7.344;2023-01-08T00:49:56;10.90;79.40
40085;DHT22;25786;51.504;7.344;2023-01-08T00:52:21;10.90;79.50
40085;DHT22;25786;51.504;7.344;2023-01-08T00:54:47;10.80;79.70
40085;DHT22;25786;51.504;7.344;2023-01-08T00:57:12;10.90;79.50
40085;DHT22;25786;51.504;7.344;2023-01-08T00:59:38;10.80;79.90
40085;DHT22;25786;51.504;7.344;2023-01-08T01:02:03;10.80;79.80
40085;DHT22;25786;51.504;7.344;2023-01-08T01:04:29;10.70;79.60
40085;DHT22;25786;51.504;7.344;2023-01-08T01:06:55;10.70;79.70
40085;DHT22;25786;51.504;7.344;2023-01-08T01:09:20;10.70;79.90
40085;DHT22;25786;51.504;7.344;2023-01-08T01:11:45;10.70;80.00
40085;DHT22;25786;51.504;7.344;2023-01-08T01:14:11;10.80;79.90
40085;DHT22;25786;51.504;7.344;2023-01-08T01:16:36;10.80;79.40
40085;DHT22;25786;51.504;7.344;2023-01-08T01:19:04;10.80;79.50
40085;DHT22;25786;51.504;7.344;2023-01-08T01:21:30;10.80;79.40
40085;DHT22;25786;51.504;7.344;2023-01-08T01:23:56;10.80;79.30
40085;DHT22;25786;51.504;7.344;2023-01-08T01:26:22;10.80;79.30
40085;DHT22;25786;51.504;7.344;2023-01-08T01:28:49;10.80;79.30
40085;DHT22;25786;51.504;7.344;2023-01-08T01:31:15;10.90;79.20
40085;DHT22;25786;51.504;7.344;2023-01-08T01:33:41;10.80;79.00
40085;DHT22;25786;51.504;7.344;2023-01-08T01:36:06;10.80;79.20
40085;DHT22;25786;51.504;7.344;2023-01-08T01:38:33;10.90;78.90
40085;DHT22;25786;51.504;7.344;2023-01-08T01:40:58;11.00;78.60
40085;DHT22;25786;51.504;7.344;2023-01-08T01:43:38;10.90;79.10
40085;DHT22;25786;51.504;7.344;2023-01-08T01:46:04;11.00;78.60
40085;DHT22;25786;51.504;7.344;2023-01-08T01:48:30;11.00;78.60
40085;DHT22;25786;51.504;7.344;2023-01-08T01:50:56;11.10;78.20
40085;DHT22;25786;51.504;7.344;2023-01-08T01:53:29;11.10;78.20
40085;DHT22;25786;51.504;7.344;2023-01-08T01:55:56;11.10;78.20
40085;DHT22;25786;51.504;7.344;2023-01-08T01:58:23;11.10;78.20
40085;DHT22;25786;51.504;7.344;2023-01-08T02:00:48;11.10;78.10
40085;DHT22;25786;51.504;7.344;2023-01-08T02:03:15;11.10;78.10
40085;DHT22;25786;51.504;7.344;2023-01-08T02:05:45;11.10;78.10
40085;DHT22;25786;51.504;7.344;2023-01-08T02:08:17;11.10;77.90
40085;DHT22;25786;51.504;7.344;2023-01-08T02:13:19;11.00;78.50
40085;DHT22;25786;51.504;7.344;2023-01-08T02:18:13;11.10;78.20
40085;DHT22;25786;51.504;7.344;2023-01-08T02:26:02;11.00;78.80
40085;DHT22;25786;51.504;7.344;2023-01-08T02:28:30;11.10;78.60
40085;DHT22;25786;51.504;7.344;2023-01-08T02:30:56;11.10;78.80
40085;DHT22;25786;51.504;7.344;2023-01-08T02:33:23;11.10;79.00
40085;DHT22;25786;51.504;7.344;2023-01-08T02:35:53;11.20;79.50
40085;DHT22;25786;51.504;7.344;2023-01-08T02:38:19;11.10;79.50
40085;DHT22;25786;51.504;7.344;2023-01-08T02:43:21;11.20;79.90
40085;DHT22;25786;51.504;7.344;2023-01-08T02:45:50;11.00;80.30
40085;DHT22;25786;51.504;7.344;2023-01-08T02:48:23;11.10;80.60
40085;DHT22;25786;51.504;7.344;2023-01-08T02:50:52;11.00;80.80
40085;DHT22;25786;51.504;7.344;2023-01-08T02:53:19;11.00;80.60
40085;DHT22;25786;51.504;7.344;2023-01-08T02:55:48;11.00;80.80
40085;DHT22;25786;51.504;7.344;2023-01-08T02:58:15;11.00;80.70
40085;DHT22;25786;51.504;7.344;2023-01-08T03:00:41;10.90;80.90
40085;DHT22;25786;51.504;7.344;2023-01-08T03:03:09;11.00;80.70
40085;DHT22;25786;51.504;7.344;2023-01-08T03:05:37;11.00;80.70
40085;DHT22;25786;51.504;7.344;2023-01-08T03:08:04;10.90;81.30
40085;DHT22;25786;51.504;7.344;2023-01-08T03:10:29;10.80;81.30
40085;DHT22;25786;51.504;7.344;2023-01-08T03:12:58;10.90;81.20
40085;DHT22;25786;51.504;7.344;2023-01-08T03:15:35;11.00;81.30
40085;DHT22;25786;51.504;7.344;2023-01-08T03:18:09;11.00;81.10
40085;DHT22;25786;51.504;7.344;2023-01-08T03:20:35;11.00;80.90
40085;DHT22;25786;51.504;7.344;2023-01-08T03:23:02;11.00;80.90
40085;DHT22;25786;51.504;7.344;2023-01-08T03:25:29;11.00;80.70
40085;DHT22;25786;51.504;7.344;2023-01-08T03:28:00;11.00;80.80
40085;DHT22;25786;51.504;7.344;2023-01-08T03:30:27;11.00;81.20
40085;DHT22;25786;51.504;7.344;2023-01-08T03:32:53;11.00;80.90
40085;DHT22;25786;51.504;7.344;2023-01-08T03:35:20;11.00;81.20
40085;DHT22;25786;51.504;7.344;2023-01-08T03:37:49;10.90;81.40
40085;DHT22;25786;51.504;7.344;2023-01-08T03:40:17;10.90;81.50
40085;DHT22;25786;51.504;7.344;2023-01-08T03:42:44;11.00;81.30
40085;DHT22;25786;51.504;7.344;2023-01-08T03:45:09;10.90;81.10
40085;DHT22;25786;51.504;7.344;2023-01-08T03:47:35;10.90;81.50
40085;DHT22;25786;51.504;7.344;2023-01-08T03:50:02;10.80;81.80
40085;DHT22;25786;51.504;7.344;2023-01-08T03:52:30;10.90;81.60
40085;DHT22;25786;51.504;7.344;2023-01-08T03:54:57;11.00;81.40
40085;DHT22;25786;51.504;7.344;2023-01-08T03:57:25;10.90;81.20
40085;DHT22;25786;51.504;7.344;2023-01-08T03:59:50;10.90;81.60
40085;DHT22;25786;51.504;7.344;2023-01-08T04:02:18;10.90;81.30
40085;DHT22;25786;51.504;7.344;2023-01-08T04:04:44;10.80;81.70
40085;DHT22;25786;51.504;7.344;2023-01-08T04:07:12;10.80;81.90
40085;DHT22;25786;51.504;7.344;2023-01-08T04:09:38;10.80;81.80
40085;DHT22;25786;51.504;7.344;2023-01-08T04:12:03;10.90;82.10
40085;DHT22;25786;51.504;7.344;2023-01-08T04:14:29;10.80;81.60
40085;DHT22;25786;51.504;7.344;2023-01-08T04:16:55;10.80;81.90
40085;DHT22;25786;51.504;7.344;2023-01-08T04:19:20;10.80;82.00
40085;DHT22;25786;51.504;7.344;2023-01-08T04:21:49;10.80;81.70
40085;DHT22;25786;51.504;7.344;2023-01-08T04:24:15;10.70;81.90
40085;DHT22;25786;51.504;7.344;2023-01-08T04:26:41;10.60;82.30
40085;DHT22;25786;51.504;7.344;2023-01-08T04:29:06;10.50;82.60
40085;DHT22;25786;51.504;7.344;2023-01-08T04:31:32;10.60;82.80
40085;DHT22;25786;51.504;7.344;2023-01-08T04:33:57;10.50;82.90
40085;DHT22;25786;51.504;7.344;2023-01-08T04:36:23;10.50;82.90
40085;DHT22;25786;51.504;7.344;2023-01-08T04:38:48;10.50;83.00
40085;DHT22;25786;51.504;7.344;2023-01-08T04:41:14;10.60;82.80
40085;DHT22;25786;51.504;7.344;2023-01-08T04:43:42;10.50;83.20
40085;DHT22;25786;51.504;7.344;2023-01-08T04:46:08;10.60;82.70
40085;DHT22;25786;51.504;7.344;2023-01-08T04:48:41;10.50;82.90
40085;DHT22;25786;51.504;7.344;2023-01-08T04:51:13;10.50;83.10
40085;DHT22;25786;51.504;7.344;2023-01-08T04:53:38;10.50;83.30
40085;DHT22;25786;51.504;7.344;2023-01-08T04:56:06;10.50;83.20
40085;DHT22;25786;51.504;7.344;2023-01-08T04:58:32;10.50;83.30
40085;DHT22;25786;51.504;7.344;2023-01-08T05:00:58;10.50;83.40
40085;DHT22;25786;51.504;7.344;2023-01-08T05:03:23;10.50;83.30
40085;DHT22;25786;51.504;7.344;2023-01-08T05:05:51;10.40;83.40
40085;DHT22;25786;51.504;7.344;2023-01-08T05:08:17;10.40;83.50
40085;DHT22;25786;51.504;7.344;2023-01-08T05:14:02;10.50;83.90
40085;DHT22;25786;51.504;7.344;2023-01-08T05:16:28;10.60;83.20
40085;DHT22;25786;51.504;7.344;2023-01-08T05:19:05;10.50;83.10
40085;DHT22;25786;51.504;7.344;2023-01-08T05:21:38;10.50;83.40
40085;DHT22;25786;51.504;7.344;2023-01-08T05:24:03;10.50;83.60
40085;DHT22;25786;51.504;7.344;2023-01-08T05:26:29;10.50;83.20
40085;DHT22;25786;51.504;7.344;2023-01-08T05:28:57;10.40;83.20
40085;DHT22;25786;51.504;7.344;2023-01-08T05:31:23;10.40;83.20
40085;DHT22;25786;51.504;7.344;2023-01-08T05:36:57;10.50;82.30
40085;DHT22;25786;51.504;7.344;2023-01-08T05:39:26;10.50;82.70
40085;DHT22;25786;51.504;7.344;2023-01-08T05:42:00;10.50;82.90
40085;DHT22;25786;51.504;7.344;2023-01-08T05:44:26;10.50;82.70
40085;DHT22;25786;51.504;7.344;2023-01-08T05:47:02;10.60;82.40
40085;DHT22;25786;51.504;7.344;2023-01-08T05:49:27;10.60;82.50
40085;DHT22;25786;51.504;7.344;2023-01-08T05:51:52;10.50;82.50
40085;DHT22;25786;51.504;7.344;2023-01-08T05:54:18;10.60;82.20
40085;DHT22;25786;51.504;7.344;2023-01-08T05:56:43;10.60;82.00
40085;DHT22;25786;51.504;7.344;2023-01-08T05:59:10;10.60;82.30
40085;DHT22;25786;51.504;7.344;2023-01-08T06:01:35;10.60;82.20
40085;DHT22;25786;51.504;7.344;2023-01-08T06:04:01;10.60;82.30
40085;DHT22;25786;51.504;7.344;2023-01-08T06:06:29;10.60;82.20
40085;DHT22;25786;51.504;7.344;2023-01-08T06:08:54;10.50;82.20
40085;DHT22;25786;51.504;7.344;2023-01-08T06:11:20;10.50;82.80
40085;DHT22;25786;51.504;7.344;2023-01-08T06:13:45;10.50;82.50
40085;DHT22;25786;51.504;7.344;2023-01-08T06:16:11;10.60;82.30
40085;DHT22;25786;51.504;7.344;2023-01-08T06:18:36;10.50;82.10
40085;DHT22;25786;51.504;7.344;2023-01-08T06:21:02;10.50;82.40
40085;DHT22;25786;51.504;7.344;2023-01-08T06:23:28;10.60;82.10
40085;DHT22;25786;51.504;7.344;2023-01-08T06:25:54;10.50;82.30
40085;DHT22;25786;51.504;7.344;2023-01-08T06:28:20;10.40;82.80
40085;DHT22;25786;51.504;7.344;2023-01-08T06:30:46;10.50;82.60
40085;DHT22;25786;51.504;7.344;2023-01-08T06:33:11;10.50;82.50
40085;DHT22;25786;51.504;7.344;2023-01-08T06:35:37;10.50;82.60
40085;DHT22;25786;51.504;7.344;2023-01-08T06:38:02;10.40;82.80
40085;DHT22;25786;51.504;7.344;2023-01-08T06:40:28;10.50;82.90
40085;DHT22;25786;51.504;7.344;2023-01-08T06:42:53;10.40;82.60
40085;DHT22;25786;51.504;7.344;2023-01-08T06:45:19;10.40;82.80
40085;DHT22;25786;51.504;7.344;2023-01-08T06:47:44;10.50;82.40
40085;DHT22;25786;51.504;7.344;2023-01-08T06:50:10;10.60;81.70
40085;DHT22;25786;51.504;7.344;2023-01-08T06:52:36;10.60;81.90
40085;DHT22;25786;51.504;7.344;2023-01-08T06:55:02;10.50;82.20
40085;DHT22;25786;51.504;7.344;2023-01-08T06:57:29;10.40;82.50
40085;DHT22;25786;51.504;7.344;2023-01-08T06:59:55;10.40;82.40
40085;DHT22;25786;51.504;7.344;2023-01-08T07:02:20;10.40;82.10
40085;DHT22;25786;51.504;7.344;2023-01-08T07:04:46;10.40;82.30
40085;DHT22;25786;51.504;7.344;2023-01-08T07:07:12;10.30;82.30
40085;DHT22;25786;51.504;7.344;2023-01-08T07:09:38;10.30;82.60
40085;DHT22;25786;51.504;7.344;2023-01-08T07:12:04;10.30;82.20
40085;DHT22;25786;51.504;7.344;2023-01-08T07:14:29;10.30;82.30
40085;DHT22;25786;51.504;7.344;2023-01-08T07:16:55;10.40;82.20
40085;DHT22;25786;51.504;7.344;2023-01-08T07:19:20;10.40;82.00
40085;DHT22;25786;51.504;7.344;2023-01-08T07:21:45;10.30;81.70
40085;DHT22;25786;51.504;7.344;2023-01-08T07:24:11;10.30;82.30
40085;DHT22;25786;51.504;7.344;2023-01-08T07:26:36;10.30;82.50
40085;DHT22;25786;51.504;7.344;2023-01-08T07:29:04;10.30;82.80
40085;DHT22;25786;51.504;7.344;2023-01-08T07:31:29;10.30;83.40
40085;DHT22;25786;51.504;7.344;2023-01-08T07:33:55;10.20;84.40
40085;DHT22;25786;51.504;7.344;2023-01-08T07:36:20;10.10;85.10
40085;DHT22;25786;51.504;7.344;2023-01-08T07:38:47;10.00;84.60
40085;DHT22;25786;51.504;7.344;2023-01-08T07:41:14;9.70;83.70
40085;DHT22;25786;51.504;7.344;2023-01-08T07:43:39;9.60;84.10
40085;DHT22;25786;51.504;7.344;2023-01-08T07:46:05;9.60;84.10
40085;DHT22;25786;51.504;7.344;2023-01-08T07:48:30;9.60;84.30
40085;DHT22;25786;51.504;7.344;2023-01-08T07:50:59;9.60;84.70
40085;DHT22;25786;51.504;7.344;2023-01-08T07:53:25;9.50;84.00
40085;DHT22;25786;51.504;7.344;2023-01-08T07:55:50;9.50;84.30
40085;DHT22;25786;51.504;7.344;2023-01-08T07:58:16;9.40;84.40
40085;DHT22;25786;51.504;7.344;2023-01-08T08:00:41;9.50;84.60
40085;DHT22;25786;51.504;7.344;2023-01-08T08:03:07;9.40;83.90
40085;DHT22;25786;51.504;7.344;2023-01-08T08:05:33;9.50;83.90
40085;DHT22;25786;51.504;7.344;2023-01-08T08:07:59;9.50;83.40
40085;DHT22;25786;51.504;7.344;2023-01-08T08:10:24;9.50;83.30
40085;DHT22;25786;51.504;7.344;2023-01-08T08:12:50;9.40;83.40
40085;DHT22;25786;51.504;7.344;2023-01-08T08:15:17;9.50;82.90
40085;DHT22;25786;51.504;7.344;2023-01-08T08:17:44;9.40;83.30
40085;DHT22;25786;51.504;7.344;2023-01-08T08:20:09;9.40;82.90
40085;DHT22;25786;51.504;7.344;2023-01-08T08:22:35;9.40;82.70
40085;DHT22;25786;51.504;7.344;2023-01-08T08:25:00;9.40;82.80
40085;DHT22;25786;51.504;7.344;2023-01-08T08:27:26;9.40;82.80
40085;DHT22;25786;51.504;7.344;2023-01-08T08:29:51;9.30;82.40
40085;DHT22;25786;51.504;7.344;2023-01-08T08:32:16;9.30;82.40
40085;DHT22;25786;51.504;7.344;2023-01-08T08:34:42;9.30;82.00
40085;DHT22;25786;51.504;7.344;2023-01-08T08:37:07;9.40;81.80
40085;DHT22;25786;51.504;7.344;2023-01-08T08:39:33;9.30;81.30
40085;DHT22;25786;51.504;7.344;2023-01-08T08:41:59;9.30;80.90
40085;DHT22;25786;51.504;7.344;2023-01-08T08:44:24;9.40;80.40
40085;DHT22;25786;51.504;7.344;2023-01-08T08:46:50;9.40;80.40
40085;DHT22;25786;51.504;7.344;2023-01-08T08:49:32;9.40;79.80
40085;DHT22;25786;51.504;7.344;2023-01-08T08:51:57;9.30;80.10
40085;DHT22;25786;51.504;7.344;2023-01-08T08:54:22;9.20;80.10
40085;DHT22;25786;51.504;7.344;2023-01-08T08:56:48;9.20;79.70
40085;DHT22;25786;51.504;7.344;2023-01-08T08:59:13;9.20;79.50
40085;DHT22;25786;51.504;7.344;2023-01-08T09:01:39;9.10;79.60
40085;DHT22;25786;51.504;7.344;2023-01-08T09:04:04;9.10;79.30
40085;DHT22;25786;51.504;7.344;2023-01-08T09:06:39;9.10;79.20
40085;DHT22;25786;51.504;7.344;2023-01-08T09:09:05;9.10;78.50
40085;DHT22;25786;51.504;7.344;2023-01-08T09:11:30;9.00;78.10
40085;DHT22;25786;51.504;7.344;2023-01-08T09:13:56;9.00;78.30
40085;DHT22;25786;51.504;7.344;2023-01-08T09:16:21;9.10;78.40
40085;DHT22;25786;51.504;7.344;2023-01-08T09:18:46;9.10;78.60
40085;DHT22;25786;51.504;7.344;2023-01-08T09:21:13;9.10;79.10
40085;DHT22;25786;51.504;7.344;2023-01-08T09:23:38;9.00;79.00
40085;DHT22;25786;51.504;7.344;2023-01-08T09:26:04;9.00;79.20
40085;DHT22;25786;51.504;7.344;2023-01-08T09:28:30;9.10;78.70
40085;DHT22;25786;51.504;7.344;2023-01-08T09:30:55;9.00;78.80
40085;DHT22;25786;51.504;7.344;2023-01-08T09:33:21;9.10;78.20
40085;DHT22;25786;51.504;7.344;2023-01-08T09:35:46;9.10;78.80
40085;DHT22;25786;51.504;7.344;2023-01-08T09:38:12;9.10;78.80
40085;DHT22;25786;51.504;7.344;2023-01-08T09:40:47;9.20;78.40
40085;DHT22;25786;51.504;7.344;2023-01-08T09:43:16;9.20;78.30
40085;DHT22;25786;51.504;7.344;2023-01-08T09:45:42;9.30;78.50
40085;DHT22;25786;51.504;7.344;2023-01-08T09:48:13;9.30;78.10
40085;DHT22;25786;51.504;7.344;2023-01-08T09:50:39;9.40;77.90
40085;DHT22;25786;51.504;7.344;2023-01-08T09:53:07;9.40;77.80
40085;DHT22;25786;51.504;7.344;2023-01-08T09:55:34;9.50;77.70
40085;DHT22;25786;51.504;7.344;2023-01-08T09:58:00;9.50;77.40
40085;DHT22;25786;51.504;7.344;2023-01-08T10:00:27;9.50;77.30
40085;DHT22;25786;51.504;7.344;2023-01-08T10:02:53;9.50;77.80
40085;DHT22;25786;51.504;7.344;2023-01-08T10:05:19;9.50;77.40
40085;DHT22;25786;51.504;7.344;2023-01-08T10:07:45;9.60;77.20
40085;DHT22;25786;51.504;7.344;2023-01-08T10:10:31;9.60;76.90
40085;DHT22;25786;51.504;7.344;2023-01-08T10:12:56;9.80;76.90
40085;DHT22;25786;51.504;7.344;2023-01-08T10:15:22;9.90;76.60
40085;DHT22;25786;51.504;7.344;2023-01-08T10:17:50;9.90;76.80
40085;DHT22;25786;51.504;7.344;2023-01-08T10:20:20;9.90;77.20
40085;DHT22;25786;51.504;7.344;2023-01-08T10:22:47;9.90;77.10
40085;DHT22;25786;51.504;7.344;2023-01-08T10:25:14;10.00;76.90
40085;DHT22;25786;51.504;7.344;2023-01-08T10:27:57;10.00;77.20
40085;DHT22;25786;51.504;7.344;2023-01-08T10:30:37;10.00;77.00
40085;DHT22;25786;51.504;7.344;2023-01-08T10:33:05;10.10;76.60
40085;DHT22;25786;51.504;7.344;2023-01-08T10:35:34;10.20;76.60
40085;DHT22;25786;51.504;7.344;2023-01-08T10:38:01;10.20;76.30
40085;DHT22;25786;51.504;7.344;2023-01-08T10:40:34;10.20;77.10
40085;DHT22;25786;51.504;7.344;2023-01-08T10:43:05;10.30;77.00
40085;DHT22;25786;51.504;7.344;2023-01-08T10:45:31;10.30;76.90
40085;DHT22;25786;51.504;7.344;2023-01-08T10:47:58;10.40;76.50
40085;DHT22;25786;51.504;7.344;2023-01-08T10:50:26;10.30;76.30
40085;DHT22;25786;51.504;7.344;2023-01-08T10:52:58;10.40;76.40
40085;DHT22;25786;51.504;7.344;2023-01-08T10:55:31;10.30;76.10
40085;DHT22;25786;51.504;7.344;2023-01-08T10:58:04;10.40;76.30
40085;DHT22;25786;51.504;7.344;2023-01-08T11:00:37;10.40;76.20
40085;DHT22;25786;51.504;7.344;2023-01-08T11:03:03;10.30;76.60
40085;DHT22;25786;51.504;7.344;2023-01-08T11:05:39;10.40;76.30
40085;DHT22;25786;51.504;7.344;2023-01-08T11:08:26;10.50;76.70
40085;DHT22;25786;51.504;7.344;2023-01-08T11:10:51;10.50;76.60
40085;DHT22;25786;51.504;7.344;2023-01-08T11:13:17;10.50;76.90
40085;DHT22;25786;51.504;7.344;2023-01-08T11:15:43;10.50;77.00
40085;DHT22;25786;51.504;7.344;2023-01-08T11:18:11;10.50;76.10
40085;DHT22;25786;51.504;7.344;2023-01-08T11:20:38;10.60;76.70
40085;DHT22;25786;51.504;7.344;2023-01-08T11:25:35;10.80;76.50
40085;DHT22;25786;51.504;7.344;2023-01-08T11:28:02;10.80;76.20
40085;DHT22;25786;51.504;7.344;2023-01-08T11:30:28;10.80;76.50
40085;DHT22;25786;51.504;7.344;2023-01-08T11:32:59;10.90;76.40
40085;DHT22;25786;51.504;7.344;2023-01-08T11:35:27;11.00;76.10
40085;DHT22;25786;51.504;7.344;2023-01-08T11:37:57;11.00;76.00
40085;DHT22;25786;51.504;7.344;2023-01-08T11:41:35;11.00;75.80
40085;DHT22;25786;51.504;7.344;2023-01-08T11:57:31;11.50;74.70
40085;DHT22;25786;51.504;7.344;2023-01-08T12:02:53;11.50;74.20
40085;DHT22;25786;51.504;7.344;2023-01-08T12:18:42;11.50;74.20
40085;DHT22;25786;51.504;7.344;2023-01-08T12:21:32;11.50;73.60
40085;DHT22;25786;51.504;7.344;2023-01-08T12:29:21;11.70;72.90
40085;DHT22;25786;51.504;7.344;2023-01-08T12:34:32;11.70;72.30
40085;DHT22;25786;51.504;7.344;2023-01-08T12:37:10;11.70;73.40
40085;DHT22;25786;51.504;7.344;2023-01-08T12:39:42;11.80;73.20
40085;DHT22;25786;51.504;7.344;2023-01-08T12:42:12;11.90;73.20
40085;DHT22;25786;51.504;7.344;2023-01-08T12:44:38;12.00;72.80
40085;DHT22;25786;51.504;7.344;2023-01-08T12:47:04;11.90;72.80
40085;DHT22;25786;51.504;7.344;2023-01-08T12:49:51;12.00;72.30
40085;DHT22;25786;51.504;7.344;2023-01-08T12:52:19;12.00;72.00
40085;DHT22;25786;51.504;7.344;2023-01-08T12:54:51;12.00;72.70
40085;DHT22;25786;51.504;7.344;2023-01-08T12:57:55;12.00;72.00
40085;DHT22;25786;51.504;7.344;2023-01-08T13:02:55;11.70;73.70
40085;DHT22;25786;51.504;7.344;2023-01-08T13:07:48;11.30;78.40
40085;DHT22;25786;51.504;7.344;2023-01-08T13:12:56;10.60;81.60
40085;DHT22;25786;51.504;7.344;2023-01-08T13:15:23;10.30;82.30
40085;DHT22;25786;51.504;7.344;2023-01-08T13:17:50;10.00;82.90
40085;DHT22;25786;51.504;7.344;2023-01-08T13:20:23;9.90;83.70
40085;DHT22;25786;51.504;7.344;2023-01-08T13:23:17;9.70;84.10
40085;DHT22;25786;51.504;7.344;2023-01-08T13:25:38;9.70;84.30
40085;DHT22;25786;51.504;7.344;2023-01-08T13:30:48;9.50;84.80
40085;DHT22;25786;51.504;7.344;2023-01-08T13:33:25;9.50;84.90
40085;DHT22;25786;51.504;7.344;2023-01-08T13:35:51;9.50;85.10
40085;DHT22;25786;51.504;7.344;2023-01-08T13:38:18;9.40;85.30
40085;DHT22;25786;51.504;7.344;2023-01-08T13:43:13;9.40;85.80
40085;DHT22;25786;51.504;7.344;2023-01-08T13:45:40;9.40;85.50
40085;DHT22;25786;51.504;7.344;2023-01-08T13:48:17;9.50;85.20
40085;DHT22;25786;51.504;7.344;2023-01-08T13:50:44;9.50;84.70
40085;DHT22;25786;51.504;7.344;2023-01-08T13:53:10;9.50;83.50
40085;DHT22;25786;51.504;7.344;2023-01-08T13:55:40;9.50;83.60
40085;DHT22;25786;51.504;7.344;2023-01-08T13:58:08;9.50;84.30
40085;DHT22;25786;51.504;7.344;2023-01-08T14:03:27;9.60;83.60
40085;DHT22;25786;51.504;7.344;2023-01-08T14:06:04;9.50;84.00
40085;DHT22;25786;51.504;7.344;2023-01-08T14:08:30;9.50;83.10
40085;DHT22;25786;51.504;7.344;2023-01-08T14:10:55;9.50;83.10
40085;DHT22;25786;51.504;7.344;2023-01-08T14:13:22;9.50;83.10
40085;DHT22;25786;51.504;7.344;2023-01-08T14:15:50;9.60;83.00
40085;DHT22;25786;51.504;7.344;2023-01-08T14:18:16;9.50;82.60
40085;DHT22;25786;51.504;7.344;2023-01-08T14:20:43;9.50;82.60
40085;DHT22;25786;51.504;7.344;2023-01-08T14:23:16;9.60;82.00
40085;DHT22;25786;51.504;7.344;2023-01-08T14:25:45;9.60;81.80
40085;DHT22;25786;51.504;7.344;2023-01-08T14:28:13;9.50;82.30
40085;DHT22;25786;51.504;7.344;2023-01-08T14:30:45;9.60;81.50
40085;DHT22;25786;51.504;7.344;2023-01-08T14:33:11;9.60;81.40
40085;DHT22;25786;51.504;7.344;2023-01-08T14:35:37;9.60;81.80
40085;DHT22;25786;51.504;7.344;2023-01-08T14:38:03;9.60;81.60
40085;DHT22;25786;51.504;7.344;2023-01-08T14:40:39;9.60;82.00
40085;DHT22;25786;51.504;7.344;2023-01-08T14:43:07;9.60;82.10
40085;DHT22;25786;51.504;7.344;2023-01-08T14:45:33;9.60;82.20
40085;DHT22;25786;51.504;7.344;2023-01-08T14:50:28;9.60;82.00
40085;DHT22;25786;51.504;7.344;2023-01-08T14:52:58;9.60;82.50
40085;DHT22;25786;51.504;7.344;2023-01-08T14:55:24;9.50;82.70
40085;DHT22;25786;51.504;7.344;2023-01-08T14:57:51;9.50;83.20
40085;DHT22;25786;51.504;7.344;2023-01-08T15:00:27;9.50;83.10
40085;DHT22;25786;51.504;7.344;2023-01-08T15:02:53;9.40;82.90
40085;DHT22;25786;51.504;7.344;2023-01-08T15:12:56;9.60;82.50
40085;DHT22;25786;51.504;7.344;2023-01-08T15:15:25;9.60;82.40
40085;DHT22;25786;51.504;7.344;2023-01-08T15:17:51;9.60;82.40
40085;DHT22;25786;51.504;7.344;2023-01-08T15:20:17;9.60;82.30
40085;DHT22;25786;51.504;7.344;2023-01-08T15:22:43;9.60;81.80
40085;DHT22;25786;51.504;7.344;2023-01-08T15:25:18;9.50;82.00
40085;DHT22;25786;51.504;7.344;2023-01-08T15:27:51;9.40;82.00
40085;DHT22;25786;51.504;7.344;2023-01-08T15:30:23;9.30;82.90
40085;DHT22;25786;51.504;7.344;2023-01-08T15:32:49;9.30;82.70
40085;DHT22;25786;51.504;7.344;2023-01-08T15:35:15;9.30;82.80
40085;DHT22;25786;51.504;7.344;2023-01-08T15:37:41;9.30;82.40
40085;DHT22;25786;51.504;7.344;2023-01-08T15:40:07;9.40;81.90
40085;DHT22;25786;51.504;7.344;2023-01-08T15:42:33;9.30;81.50
40085;DHT22;25786;51.504;7.344;2023-01-08T15:45:22;9.40;80.40
40085;DHT22;25786;51.504;7.344;2023-01-08T15:47:50;9.40;80.50
40085;DHT22;25786;51.504;7.344;2023-01-08T15:50:15;9.60;80.20
40085;DHT22;25786;51.504;7.344;2023-01-08T15:52:41;9.60;80.70
40085;DHT22;25786;51.504;7.344;2023-01-08T16:04:15;9.60;79.70
40085;DHT22;25786;51.504;7.344;2023-01-08T16:06:44;9.50;79.30
40085;DHT22;25786;51.504;7.344;2023-01-08T16:09:09;9.60;79.80
40085;DHT22;25786;51.504;7.344;2023-01-08T16:11:35;9.60;79.70
40085;DHT22;25786;51.504;7.344;2023-01-08T16:14:00;9.60;79.70
40085;DHT22;25786;51.504;7.344;2023-01-08T16:16:29;9.60;80.30
40085;DHT22;25786;51.504;7.344;2023-01-08T16:22:18;9.70;79.00
40085;DHT22;25786;51.504;7.344;2023-01-08T16:24:44;9.80;78.50
40085;DHT22;25786;51.504;7.344;2023-01-08T16:27:09;9.90;78.50
40085;DHT22;25786;51.504;7.344;2023-01-08T16:29:35;9.80;78.40
40085;DHT22;25786;51.504;7.344;2023-01-08T16:32:00;9.90;78.10
40085;DHT22;25786;51.504;7.344;2023-01-08T16:34:26;10.00;77.30
40085;DHT22;25786;51.504;7.344;2023-01-08T16:36:51;10.00;77.10
40085;DHT22;25786;51.504;7.344;2023-01-08T16:39:16;10.00;77.20
40085;DHT22;25786;51.504;7.344;2023-01-08T16:41:42;10.00;77.20
40085;DHT22;25786;51.504;7.344;2023-01-08T16:44:18;10.00;76.60
40085;DHT22;25786;51.504;7.344;2023-01-08T16:46:44;10.00;77.40
40085;DHT22;25786;51.504;7.344;2023-01-08T16:49:09;9.90;76.80
40085;DHT22;25786;51.504;7.344;2023-01-08T16:51:35;10.00;76.50
40085;DHT22;25786;51.504;7.344;2023-01-08T16:54:00;10.00;76.50
40085;DHT22;25786;51.504;7.344;2023-01-08T16:56:26;9.90;76.30
40085;DHT22;25786;51.504;7.344;2023-01-08T16:58:51;10.00;75.70
40085;DHT22;25786;51.504;7.344;2023-01-08T17:01:17;10.00;76.00
40085;DHT22;25786;51.504;7.344;2023-01-08T17:03:42;9.90;75.40
40085;DHT22;25786;51.504;7.344;2023-01-08T17:06:08;10.00;75.20
40085;DHT22;25786;51.504;7.344;2023-01-08T17:08:34;10.00;75.10
40085;DHT22;25786;51.504;7.344;2023-01-08T17:13:32;9.70;75.80
40085;DHT22;25786;51.504;7.344;2023-01-08T17:15:58;9.60;76.10
40085;DHT22;25786;51.504;7.344;2023-01-08T17:18:28;9.60;76.40
40085;DHT22;25786;51.504;7.344;2023-01-08T17:20:54;9.60;76.50